createdAt,value
2023-05-04T00:00:26.433Z,13.57
2023-05-04T00:01:28.581Z,13.60
2023-05-04T00:02:30.464Z,13.60
2023-05-04T00:03:32.525Z,13.67
2023-05-04T00:04:34.528Z,13.61
2023-05-04T00:05:36.450Z,13.59
2023-05-04T00:06:38.594Z,13.46
2023-05-04T00:07:40.859Z,13.55
2023-05-04T00:08:42.694Z,13.47
2023-05-04T00:09:44.582Z,13.37
2023-05-04T00:10:46.504Z,13.33
2023-05-04T00:11:48.605Z,13.49
2023-05-04T00:12:50.596Z,13.51
2023-05-04T00:13:52.512Z,13.50
2023-05-04T00:14:54.353Z,13.58
2023-05-04T00:15:56.202Z,13.62
2023-05-04T00:16:58.353Z,13.48
2023-05-04T00:18:00.371Z,13.40
2023-05-04T00:19:02.313Z,13.31
2023-05-04T00:20:04.701Z,13.33
2023-05-04T00:21:07.136Z,13.44
2023-05-04T00:22:09.397Z,13.35
2023-05-04T00:23:11.279Z,13.28
2023-05-04T00:24:13.999Z,13.16
2023-05-04T00:25:15.956Z,13.25
2023-05-04T00:26:17.813Z,13.45
2023-05-04T00:27:20.092Z,13.53
2023-05-04T00:28:21.918Z,13.50
2023-05-04T00:29:23.797Z,13.46
2023-05-04T00:30:25.684Z,13.47
2023-05-04T00:31:28.750Z,13.38
2023-05-04T00:32:31.053Z,13.33
2023-05-04T00:33:32.960Z,13.39
2023-05-04T00:34:35.228Z,13.52
2023-05-04T00:35:37.130Z,13.62
2023-05-04T00:36:39.045Z,13.72
2023-05-04T00:37:41.197Z,13.52
2023-05-04T00:38:50.167Z,13.42
2023-05-04T00:39:52.117Z,13.42
2023-05-04T00:40:54.036Z,13.36
2023-05-04T00:41:56.274Z,13.53
2023-05-04T00:42:58.427Z,13.62
2023-05-04T00:44:00.493Z,13.50
2023-05-04T00:45:02.360Z,13.50
2023-05-04T00:46:04.401Z,13.51
2023-05-04T00:47:06.653Z,13.48
2023-05-04T00:48:08.945Z,13.57
2023-05-04T00:49:11.216Z,13.54
2023-05-04T00:50:13.316Z,13.54
2023-05-04T00:51:17.235Z,13.53
2023-05-04T00:52:20.862Z,13.57
2023-05-04T00:53:23.101Z,13.54
2023-05-04T00:54:25.933Z,13.47
2023-05-04T00:55:27.822Z,13.45
2023-05-04T00:56:31.097Z,13.47
2023-05-04T00:57:33.060Z,13.43
2023-05-04T00:58:35.389Z,13.59
2023-05-04T00:59:37.357Z,13.61
2023-05-04T01:00:39.307Z,13.58
2023-05-04T01:01:42.109Z,13.55
2023-05-04T01:02:44.328Z,13.51
2023-05-04T01:03:46.535Z,13.46
2023-05-04T01:04:48.684Z,13.50
2023-05-04T01:06:08.803Z,13.48
2023-05-04T01:07:26.605Z,13.51
2023-05-04T01:08:32.794Z,13.47
2023-05-04T01:09:50.052Z,13.54
2023-05-04T01:11:02.375Z,13.51
2023-05-04T01:12:31.192Z,13.45
2023-05-04T01:13:35.090Z,13.31
2023-05-04T01:14:39.669Z,13.10
2023-05-04T01:15:42.320Z,13.10
2023-05-04T01:16:44.255Z,13.06
2023-05-04T01:17:46.338Z,13.10
2023-05-04T01:18:48.877Z,13.06
2023-05-04T01:19:53.934Z,13.10
2023-05-04T01:20:55.877Z,13.23
2023-05-04T01:21:58.917Z,13.24
2023-05-04T01:23:01.517Z,13.29
2023-05-04T01:24:03.432Z,13.34
2023-05-04T01:25:06.709Z,13.36
2023-05-04T01:26:23.155Z,13.25
2023-05-04T01:27:31.359Z,13.39
2023-05-04T01:28:44.495Z,13.43
2023-05-04T01:29:59.395Z,13.63
2023-05-04T01:31:02.836Z,13.59
2023-05-04T01:32:06.039Z,13.41
2023-05-04T01:33:08.885Z,13.42
2023-05-04T01:34:13.336Z,13.38
2023-05-04T01:35:16.304Z,13.35
2023-05-04T01:36:22.325Z,13.37
2023-05-04T01:37:24.318Z,13.18
2023-05-04T01:38:26.232Z,13.21
2023-05-04T01:39:29.985Z,13.24
2023-05-04T01:40:31.891Z,13.19
2023-05-04T01:41:34.019Z,13.16
2023-05-04T01:42:35.936Z,13.08
2023-05-04T01:43:37.861Z,13.09
2023-05-04T01:44:40.543Z,13.04
2023-05-04T01:45:42.433Z,13.04
2023-05-04T01:46:44.823Z,12.95
2023-05-04T01:47:46.846Z,12.94
2023-05-04T01:48:48.791Z,13.11
2023-05-04T01:49:50.663Z,12.91
2023-05-04T01:50:52.482Z,12.93
2023-05-04T01:51:54.658Z,12.87
2023-05-04T01:52:56.500Z,12.89
2023-05-04T01:53:58.418Z,12.93
2023-05-04T01:55:00.360Z,12.99
2023-05-04T01:56:02.224Z,13.05
2023-05-04T01:57:04.518Z,13.00
2023-05-04T01:58:06.419Z,12.99
2023-05-04T01:59:08.323Z,12.87
2023-05-04T02:00:10.826Z,12.90
2023-05-04T02:01:17.288Z,12.82
2023-05-04T02:02:19.498Z,12.61
2023-05-04T02:03:21.601Z,12.57
2023-05-04T02:04:23.629Z,12.45
2023-05-04T02:05:25.581Z,12.57
2023-05-04T02:06:27.492Z,12.72
2023-05-04T02:07:29.803Z,12.77
2023-05-04T02:08:31.769Z,12.49
2023-05-04T02:09:33.972Z,12.35
2023-05-04T02:10:35.809Z,12.28
2023-05-04T02:11:37.636Z,12.40
2023-05-04T02:12:39.973Z,12.64
2023-05-04T02:13:42.658Z,12.52
2023-05-04T02:14:44.555Z,12.43
2023-05-04T02:15:46.515Z,12.35
2023-05-04T02:16:48.384Z,12.48
2023-05-04T02:17:50.689Z,12.43
2023-05-04T02:18:52.562Z,12.25
2023-05-04T02:19:54.407Z,12.22
2023-05-04T02:20:56.253Z,12.26
2023-05-04T02:21:58.093Z,12.35
2023-05-04T02:23:00.356Z,12.29
2023-05-04T02:24:02.238Z,12.37
2023-05-04T02:25:04.552Z,12.33
2023-05-04T02:26:06.956Z,12.17
2023-05-04T02:27:08.791Z,12.09
2023-05-04T02:28:11.150Z,11.88
2023-05-04T02:29:13.040Z,12.05
2023-05-04T02:30:15.137Z,12.14
2023-05-04T02:31:17.070Z,12.16
2023-05-04T02:32:18.963Z,12.31
2023-05-04T02:33:21.059Z,12.30
2023-05-04T02:34:23.020Z,12.22
2023-05-04T02:35:25.285Z,12.20
2023-05-04T02:36:27.288Z,12.13
2023-05-04T02:37:29.252Z,12.25
2023-05-04T02:38:31.069Z,12.28
2023-05-04T02:39:32.869Z,12.38
2023-05-04T02:40:36.862Z,12.22
2023-05-04T02:41:38.856Z,12.22
2023-05-04T02:42:40.719Z,12.39
2023-05-04T02:43:42.546Z,12.40
2023-05-04T02:44:44.425Z,12.37
2023-05-04T02:45:47.134Z,12.28
2023-05-04T02:46:49.061Z,12.20
2023-05-04T02:47:51.005Z,12.22
2023-05-04T02:48:52.873Z,12.19
2023-05-04T02:49:54.689Z,12.31
2023-05-04T02:50:56.835Z,12.16
2023-05-04T02:51:58.693Z,12.25
2023-05-04T02:53:00.590Z,12.37
2023-05-04T02:54:02.603Z,12.42
2023-05-04T02:55:04.788Z,12.49
2023-05-04T02:56:07.025Z,12.29
2023-05-04T02:57:08.931Z,12.24
2023-05-04T02:58:11.428Z,12.24
2023-05-04T02:59:13.417Z,12.15
2023-05-04T03:00:15.764Z,12.11
2023-05-04T03:01:17.934Z,12.18
2023-05-04T03:02:19.853Z,12.16
2023-05-04T03:03:21.980Z,12.09
2023-05-04T03:04:23.951Z,12.22
2023-05-04T03:05:26.310Z,12.21
2023-05-04T03:06:28.413Z,12.28
2023-05-04T03:07:30.363Z,12.18
2023-05-04T03:08:32.284Z,12.19
2023-05-04T03:09:34.145Z,12.29
2023-05-04T03:10:36.269Z,12.40
2023-05-04T03:11:38.367Z,12.39
2023-05-04T03:12:40.975Z,12.37
2023-05-04T03:13:43.184Z,12.51
2023-05-04T03:14:46.265Z,12.54
2023-05-04T03:15:48.163Z,12.52
2023-05-04T03:16:50.568Z,12.33
2023-05-04T03:17:52.544Z,12.31
2023-05-04T03:18:54.393Z,12.24
2023-05-04T03:19:56.328Z,12.33
2023-05-04T03:20:58.248Z,12.44
2023-05-04T03:22:00.530Z,12.47
2023-05-04T03:23:02.428Z,12.56
2023-05-04T03:24:05.270Z,12.44
2023-05-04T03:25:08.342Z,12.34
2023-05-04T03:26:10.585Z,12.18
2023-05-04T03:27:12.967Z,12.17
2023-05-04T03:28:14.899Z,12.29
2023-05-04T03:29:16.975Z,12.22
2023-05-04T03:30:19.143Z,12.30
2023-05-04T03:31:21.519Z,12.41
2023-05-04T03:32:24.931Z,12.29
2023-05-04T03:33:26.917Z,12.20
2023-05-04T03:34:29.583Z,12.23
2023-05-04T03:35:33.783Z,12.27
2023-05-04T03:36:36.498Z,12.21
2023-05-04T03:37:38.822Z,12.05
2023-05-04T03:38:41.708Z,12.10
2023-05-04T03:39:43.574Z,12.21
2023-05-04T03:40:45.890Z,12.20
2023-05-04T03:41:48.002Z,12.17
2023-05-04T03:42:52.345Z,11.93
2023-05-04T03:43:54.437Z,12.07
2023-05-04T03:44:56.297Z,12.13
2023-05-04T03:45:58.187Z,12.06
2023-05-04T03:47:00.037Z,11.99
2023-05-04T03:48:02.874Z,11.86
2023-05-04T03:49:04.924Z,11.79
2023-05-04T03:50:07.600Z,11.78
2023-05-04T03:51:09.606Z,11.79
2023-05-04T03:52:11.575Z,11.87
2023-05-04T03:53:13.799Z,11.85
2023-05-04T03:54:16.951Z,11.81
2023-05-04T03:55:19.262Z,11.97
2023-05-04T03:56:23.675Z,11.89
2023-05-04T03:57:25.613Z,11.83
2023-05-04T03:58:29.397Z,11.85
2023-05-04T03:59:33.242Z,11.90
2023-05-04T04:00:37.360Z,12.06
2023-05-04T04:01:41.025Z,12.20
2023-05-04T04:02:43.008Z,12.25
2023-05-04T04:03:48.217Z,12.22
2023-05-04T04:04:50.128Z,12.11
2023-05-04T04:05:52.550Z,12.14
2023-05-04T04:06:54.697Z,12.22
2023-05-04T04:07:56.860Z,12.23
2023-05-04T04:08:58.772Z,12.47
2023-05-04T04:10:00.819Z,12.45
2023-05-04T04:11:03.124Z,12.32
2023-05-04T04:12:05.539Z,12.28
2023-05-04T04:13:07.372Z,12.32
2023-05-04T04:14:09.290Z,12.51
2023-05-04T04:15:11.801Z,12.56
2023-05-04T04:16:13.638Z,12.54
2023-05-04T04:17:15.932Z,12.63
2023-05-04T04:18:17.986Z,12.69
2023-05-04T04:19:19.911Z,12.68
2023-05-04T04:20:21.793Z,12.67
2023-05-04T04:21:23.767Z,12.75
2023-05-04T04:22:26.384Z,12.67
2023-05-04T04:23:28.201Z,12.67
2023-05-04T04:24:30.013Z,12.59
2023-05-04T04:25:32.096Z,12.68
2023-05-04T04:26:34.119Z,12.83
2023-05-04T04:27:37.132Z,12.91
2023-05-04T04:28:38.972Z,13.03
2023-05-04T04:29:40.883Z,13.11
2023-05-04T04:30:42.809Z,13.07
2023-05-04T04:31:44.690Z,13.10
2023-05-04T04:32:47.183Z,13.08
2023-05-04T04:33:52.689Z,13.10
2023-05-04T04:34:54.577Z,13.16
2023-05-04T04:35:56.674Z,12.95
2023-05-04T04:36:58.906Z,12.99
2023-05-04T04:38:03.612Z,13.01
2023-05-04T04:39:06.242Z,13.11
2023-05-04T04:40:09.048Z,13.16
2023-05-04T04:41:11.145Z,13.25
2023-05-04T04:42:13.491Z,13.23
2023-05-04T04:43:15.704Z,13.17
2023-05-04T04:44:20.120Z,13.22
2023-05-04T04:45:22.092Z,13.18
2023-05-04T04:46:25.200Z,13.13
2023-05-04T04:47:27.119Z,13.24
2023-05-04T04:48:29.441Z,13.23
2023-05-04T04:49:31.352Z,13.17
2023-05-04T04:50:33.318Z,13.24
2023-05-04T04:51:35.979Z,13.26
2023-05-04T04:52:38.142Z,13.21
2023-05-04T04:53:40.683Z,13.41
2023-05-04T04:54:42.573Z,13.53
2023-05-04T04:55:44.512Z,13.52
2023-05-04T04:56:46.358Z,13.55
2023-05-04T04:57:48.219Z,13.61
2023-05-04T04:58:50.893Z,13.60
2023-05-04T04:59:53.316Z,14.01
2023-05-04T05:00:55.952Z,13.97
2023-05-04T05:01:57.815Z,13.93
2023-05-04T05:02:59.885Z,13.94
2023-05-04T05:04:02.149Z,13.81
2023-05-04T05:05:04.413Z,14.04
2023-05-04T05:06:06.353Z,14.09
2023-05-04T05:07:11.041Z,14.13
2023-05-04T05:08:12.931Z,14.14
2023-05-04T05:09:15.674Z,14.12
2023-05-04T05:10:17.719Z,14.16
2023-05-04T05:11:19.608Z,14.27
2023-05-04T05:12:21.528Z,14.35
2023-05-04T05:13:23.407Z,14.19
2023-05-04T05:14:25.602Z,14.20
2023-05-04T05:15:27.481Z,14.25
2023-05-04T05:16:29.399Z,14.27
2023-05-04T05:17:31.494Z,14.27
2023-05-04T05:18:33.382Z,14.34
2023-05-04T05:19:37.313Z,14.30
2023-05-04T05:20:39.238Z,14.32
2023-05-04T05:21:41.094Z,14.43
2023-05-04T05:22:43.107Z,14.53
2023-05-04T05:23:44.970Z,14.91
2023-05-04T05:24:47.151Z,15.27
2023-05-04T05:25:49.030Z,15.23
2023-05-04T05:26:52.972Z,14.84
2023-05-04T05:27:54.858Z,14.98
2023-05-04T05:28:56.968Z,15.04
2023-05-04T05:29:59.241Z,14.97
2023-05-04T05:31:01.106Z,15.03
2023-05-04T05:32:03.915Z,15.14
2023-05-04T05:33:05.809Z,15.12
2023-05-04T05:34:07.765Z,15.02
2023-05-04T05:35:10.231Z,15.06
2023-05-04T05:36:12.249Z,15.21
2023-05-04T05:37:14.106Z,15.23
2023-05-04T05:38:16.313Z,15.30
2023-05-04T05:39:18.241Z,15.25
2023-05-04T05:40:20.592Z,15.27
2023-05-04T05:41:22.762Z,16.13
2023-05-04T05:42:24.758Z,16.58
2023-05-04T05:43:27.097Z,16.16
2023-05-04T05:44:29.106Z,15.92
2023-05-04T05:45:31.236Z,15.83
2023-05-04T05:46:33.253Z,15.85
2023-05-04T05:47:35.109Z,15.73
2023-05-04T05:48:37.045Z,15.86
2023-05-04T05:49:38.977Z,15.74
2023-05-04T05:50:41.541Z,15.84
2023-05-04T05:51:43.426Z,15.79
2023-05-04T05:52:45.541Z,15.62
2023-05-04T05:53:47.344Z,15.66
2023-05-04T05:54:49.224Z,15.62
2023-05-04T05:55:51.333Z,15.76
2023-05-04T05:56:53.192Z,15.85
2023-05-04T05:57:55.074Z,15.96
2023-05-04T05:58:56.944Z,15.87
2023-05-04T05:59:58.756Z,16.03
2023-05-04T06:01:00.891Z,16.04
2023-05-04T06:02:03.062Z,16.19
2023-05-04T06:03:05.035Z,16.31
2023-05-04T06:04:07.051Z,16.36
2023-05-04T06:05:10.507Z,16.47
2023-05-04T06:06:12.565Z,16.67
2023-05-04T06:07:14.738Z,16.68
2023-05-04T06:08:16.617Z,16.79
2023-05-04T06:09:19.202Z,16.90
2023-05-04T06:10:21.025Z,16.93
2023-05-04T06:11:22.948Z,17.13
2023-05-04T06:12:25.302Z,17.28
2023-05-04T06:13:27.168Z,17.43
2023-05-04T06:14:28.954Z,17.47
2023-05-04T06:15:30.812Z,17.63
2023-05-04T06:16:33.067Z,17.59
2023-05-04T06:17:35.651Z,17.61
2023-05-04T06:18:37.454Z,17.66
2023-05-04T06:19:39.501Z,17.57
2023-05-04T06:20:41.352Z,17.25
2023-05-04T06:21:43.174Z,17.23
2023-05-04T06:22:45.602Z,17.36
2023-05-04T06:23:47.806Z,17.34
2023-05-04T06:24:49.740Z,17.41
2023-05-04T06:25:51.775Z,17.29
2023-05-04T06:26:53.721Z,17.41
2023-05-04T06:27:55.941Z,17.41
2023-05-04T06:28:57.839Z,17.50
2023-05-04T06:30:00.044Z,17.45
2023-05-04T06:31:02.484Z,17.43
2023-05-04T06:32:04.772Z,17.67
2023-05-04T06:33:07.151Z,17.81
2023-05-04T06:34:09.147Z,17.81
2023-05-04T06:35:10.977Z,17.79
2023-05-04T06:36:14.117Z,17.99
2023-05-04T06:37:16.229Z,18.13
2023-05-04T06:38:18.430Z,18.23
2023-05-04T06:39:20.256Z,18.34
2023-05-04T06:40:22.183Z,18.44
2023-05-04T06:41:24.776Z,18.52
2023-05-04T06:42:31.552Z,18.61
2023-05-04T06:43:34.095Z,18.71
2023-05-04T06:44:39.574Z,18.78
2023-05-04T06:45:41.555Z,18.68
2023-05-04T06:46:43.407Z,18.54
2023-05-04T06:47:45.717Z,18.51
2023-05-04T06:48:47.833Z,18.12
2023-05-04T06:49:49.926Z,18.05
2023-05-04T06:50:51.774Z,18.20
2023-05-04T06:51:53.608Z,18.31
2023-05-04T06:53:06.834Z,18.58
2023-05-04T06:54:09.076Z,18.53
2023-05-04T06:55:11.293Z,18.54
2023-05-04T06:56:13.256Z,18.73
2023-05-04T06:57:15.271Z,18.66
2023-05-04T06:58:21.834Z,18.64
2023-05-04T06:59:24.154Z,18.72
2023-05-04T07:00:26.953Z,18.99
2023-05-04T07:01:29.200Z,19.08
2023-05-04T07:02:31.172Z,19.30
2023-05-04T07:03:33.086Z,19.24
2023-05-04T07:04:35.568Z,19.38
2023-05-04T07:05:37.745Z,19.50
2023-05-04T07:06:39.810Z,19.43
2023-05-04T07:07:41.678Z,19.58
2023-05-04T07:08:43.555Z,19.76
2023-05-04T07:09:47.956Z,19.64
2023-05-04T07:10:49.939Z,19.55
2023-05-04T07:11:51.808Z,19.62
2023-05-04T07:12:53.727Z,19.53
2023-05-04T07:13:55.977Z,19.48
2023-05-04T07:14:58.072Z,19.58
2023-05-04T07:15:59.905Z,19.50
2023-05-04T07:17:01.774Z,19.56
2023-05-04T07:18:03.717Z,19.55
2023-05-04T07:19:05.663Z,19.63
2023-05-04T07:20:08.605Z,19.64
2023-05-04T07:21:26.734Z,19.54
2023-05-04T07:22:31.214Z,19.87
2023-05-04T07:23:33.050Z,19.78
2023-05-04T07:24:34.970Z,20.02
2023-05-04T07:25:37.221Z,19.99
2023-05-04T07:26:39.011Z,20.06
2023-05-04T07:27:43.758Z,20.13
2023-05-04T07:28:45.665Z,20.10
2023-05-04T07:29:48.181Z,20.20
2023-05-04T07:30:50.401Z,19.98
2023-05-04T07:31:52.280Z,19.82
2023-05-04T07:32:54.304Z,19.94
2023-05-04T07:33:56.233Z,20.00
2023-05-04T07:34:58.164Z,19.87
2023-05-04T07:36:00.465Z,19.68
2023-05-04T07:37:05.472Z,19.66
2023-05-04T07:38:08.260Z,19.54
2023-05-04T07:39:10.223Z,19.54
2023-05-04T07:40:14.654Z,19.20
2023-05-04T07:41:16.796Z,19.21
2023-05-04T07:42:18.748Z,19.32
2023-05-04T07:43:21.224Z,19.62
2023-05-04T07:44:23.243Z,19.96
2023-05-04T07:45:25.047Z,20.06
2023-05-04T07:46:27.225Z,20.24
2023-05-04T07:47:29.155Z,20.29
2023-05-04T07:48:31.282Z,20.35
2023-05-04T07:49:33.264Z,20.32
2023-05-04T07:50:35.588Z,20.50
2023-05-04T07:51:38.195Z,20.60
2023-05-04T07:52:40.072Z,20.64
2023-05-04T07:53:43.184Z,20.82
2023-05-04T07:54:45.069Z,20.65
2023-05-04T07:55:47.722Z,20.95
2023-05-04T07:56:50.096Z,21.22
2023-05-04T07:57:52.037Z,21.27
2023-05-04T07:58:54.024Z,21.23
2023-05-04T07:59:56.161Z,21.43
2023-05-04T08:00:57.979Z,21.42
2023-05-04T08:02:00.104Z,20.99
2023-05-04T08:03:02.104Z,20.73
2023-05-04T08:04:04.211Z,21.02
2023-05-04T08:05:07.156Z,21.19
2023-05-04T08:06:09.009Z,21.41
2023-05-04T08:07:11.172Z,21.09
2023-05-04T08:08:12.976Z,21.19
2023-05-04T08:09:15.145Z,21.32
2023-05-04T08:10:17.355Z,21.37
2023-05-04T08:11:21.219Z,21.18
2023-05-04T08:12:24.284Z,21.26
2023-05-04T08:13:26.156Z,20.79
2023-05-04T08:14:28.020Z,21.13
2023-05-04T08:15:29.902Z,21.32
2023-05-04T08:16:32.407Z,21.41
2023-05-04T08:17:39.482Z,21.65
2023-05-04T08:18:41.390Z,21.72
2023-05-04T08:19:44.032Z,21.96
2023-05-04T08:20:45.982Z,22.11
2023-05-04T08:21:48.405Z,21.95
2023-05-04T08:22:51.080Z,21.98
2023-05-04T08:23:53.517Z,22.13
2023-05-04T08:24:55.419Z,22.20
2023-05-04T08:25:57.325Z,22.09
2023-05-04T08:27:07.058Z,22.20
2023-05-04T08:28:10.694Z,22.28
2023-05-04T08:29:12.544Z,22.11
2023-05-04T08:30:14.769Z,22.10
2023-05-04T08:31:18.548Z,22.11
2023-05-04T08:32:20.436Z,22.31
2023-05-04T08:33:22.715Z,22.48
2023-05-04T08:34:25.056Z,22.47
2023-05-04T08:35:27.920Z,22.25
2023-05-04T08:36:30.187Z,21.29
2023-05-04T08:37:32.642Z,21.72
2023-05-04T08:38:35.036Z,22.21
2023-05-04T08:39:38.360Z,22.46
2023-05-04T08:40:44.492Z,22.57
2023-05-04T08:41:46.365Z,22.66
2023-05-04T08:42:50.555Z,22.99
2023-05-04T08:43:52.848Z,23.13
2023-05-04T08:44:56.202Z,23.13
2023-05-04T08:45:58.151Z,22.84
2023-05-04T08:47:04.435Z,23.05
2023-05-04T08:48:07.680Z,22.35
2023-05-04T08:49:10.670Z,22.17
2023-05-04T08:50:13.390Z,22.50
2023-05-04T08:51:15.552Z,23.07
2023-05-04T08:52:19.068Z,23.17
2023-05-04T08:53:21.944Z,23.32
2023-05-04T08:54:25.849Z,23.11
2023-05-04T08:55:27.936Z,23.17
2023-05-04T08:56:30.682Z,23.27
2023-05-04T08:57:33.500Z,23.50
2023-05-04T08:58:38.248Z,23.58
2023-05-04T08:59:41.544Z,23.53
2023-05-04T09:00:43.972Z,23.28
2023-05-04T09:01:50.142Z,23.00
2023-05-04T09:02:53.086Z,22.97
2023-05-04T09:03:55.667Z,23.18
2023-05-04T09:04:58.296Z,23.02
2023-05-04T09:06:00.872Z,22.89
2023-05-04T09:07:03.437Z,23.12
2023-05-04T09:08:05.767Z,23.14
2023-05-04T09:09:08.692Z,23.21
2023-05-04T09:10:11.027Z,23.09
2023-05-04T09:11:13.744Z,23.10
2023-05-04T09:12:17.071Z,23.30
2023-05-04T09:13:18.939Z,23.16
2023-05-04T09:14:22.447Z,23.02
2023-05-04T09:15:24.719Z,22.93
2023-05-04T09:16:35.184Z,23.07
2023-05-04T09:17:44.598Z,23.11
2023-05-04T09:18:53.110Z,23.35
2023-05-04T09:19:59.696Z,23.47
2023-05-04T09:21:01.829Z,23.52
2023-05-04T09:22:15.031Z,23.32
2023-05-04T09:23:18.175Z,23.37
2023-05-04T09:24:30.612Z,23.22
2023-05-04T09:25:47.404Z,23.00
2023-05-04T09:26:49.595Z,23.01
2023-05-04T09:27:54.843Z,23.26
2023-05-04T09:28:57.345Z,23.24
2023-05-04T09:29:59.174Z,23.35
2023-05-04T09:31:02.508Z,23.36
2023-05-04T09:32:05.002Z,23.18
2023-05-04T09:33:06.850Z,23.11
2023-05-04T09:34:09.985Z,23.05
2023-05-04T09:35:18.726Z,23.24
2023-05-04T09:36:27.479Z,23.50
2023-05-04T09:37:29.742Z,23.43
2023-05-04T09:38:32.571Z,23.46
2023-05-04T09:39:34.383Z,23.53
2023-05-04T09:40:37.724Z,23.70
2023-05-04T09:41:39.736Z,23.57
2023-05-04T09:42:42.677Z,23.62
2023-05-04T09:43:44.888Z,23.50
2023-05-04T09:44:47.004Z,23.48
2023-05-04T09:45:49.106Z,23.47
2023-05-04T09:46:58.760Z,23.51
2023-05-04T09:48:01.434Z,23.77
2023-05-04T09:49:03.662Z,23.97
2023-05-04T09:50:19.919Z,23.91
2023-05-04T09:51:27.548Z,23.50
2023-05-04T09:52:32.027Z,23.45
2023-05-04T09:53:40.113Z,23.46
2023-05-04T09:54:44.648Z,23.41
2023-05-04T09:55:51.419Z,23.53
2023-05-04T09:56:59.550Z,23.73
2023-05-04T09:58:01.873Z,23.87
2023-05-04T09:59:05.310Z,24.03
2023-05-04T10:00:12.873Z,23.73
2023-05-04T10:01:16.177Z,23.49
2023-05-04T10:02:23.287Z,24.08
2023-05-04T10:03:27.012Z,24.39
2023-05-04T10:04:29.009Z,24.09
2023-05-04T10:05:31.061Z,24.51
2023-05-04T10:06:33.936Z,24.33
2023-05-04T10:07:36.575Z,24.39
2023-05-04T10:08:40.134Z,24.07
2023-05-04T10:09:42.280Z,23.95
2023-05-04T10:10:44.458Z,23.98
2023-05-04T10:11:46.572Z,23.88
2023-05-04T10:12:48.512Z,23.90
2023-05-04T10:13:50.840Z,23.04
2023-05-04T10:14:53.557Z,23.15
2023-05-04T10:16:01.438Z,23.25
2023-05-04T10:17:13.687Z,23.31
2023-05-04T10:18:44.982Z,23.51
2023-05-04T10:20:11.795Z,24.06
2023-05-04T10:21:22.340Z,24.06
2023-05-04T10:22:46.347Z,23.94
2023-05-04T10:24:15.591Z,23.82
2023-05-04T10:25:24.700Z,23.77
2023-05-04T10:26:50.239Z,23.65
2023-05-04T10:27:54.806Z,23.25
2023-05-04T10:29:04.948Z,23.31
2023-05-04T10:30:07.692Z,23.32
2023-05-04T10:31:09.673Z,23.38
2023-05-04T10:32:22.090Z,23.22
2023-05-04T10:33:37.853Z,23.26
2023-05-04T10:34:39.725Z,23.17
2023-05-04T10:35:54.489Z,23.13
2023-05-04T10:36:57.698Z,22.73
2023-05-04T10:37:59.632Z,22.98
2023-05-04T10:39:01.835Z,23.16
2023-05-04T10:40:10.954Z,23.14
2023-05-04T10:41:20.291Z,23.03
2023-05-04T10:42:22.271Z,22.60
2023-05-04T10:43:24.343Z,22.54
2023-05-04T10:44:28.570Z,22.87
2023-05-04T10:45:41.746Z,22.96
2023-05-04T10:46:43.959Z,22.68
2023-05-04T10:47:45.877Z,22.62
2023-05-04T10:48:48.369Z,23.02
2023-05-04T10:50:07.978Z,23.21
2023-05-04T10:51:30.140Z,23.09
2023-05-04T10:52:53.881Z,22.85
2023-05-04T10:53:55.848Z,23.17
2023-05-04T10:55:02.402Z,23.37
2023-05-04T10:56:04.501Z,23.59
2023-05-04T10:57:14.673Z,23.49
2023-05-04T10:58:19.150Z,23.39
2023-05-04T10:59:21.373Z,23.79
2023-05-04T11:00:35.563Z,23.95
2023-05-04T11:01:46.467Z,24.17
2023-05-04T11:02:49.554Z,23.52
2023-05-04T11:03:52.985Z,23.26
2023-05-04T11:05:05.835Z,23.60
2023-05-04T11:06:24.017Z,23.94
2023-05-04T11:07:38.215Z,23.93
2023-05-04T11:08:40.603Z,23.62
2023-05-04T11:09:44.410Z,23.87
2023-05-04T11:10:47.573Z,24.25
2023-05-04T11:11:49.902Z,24.44
2023-05-04T11:12:52.791Z,24.41
2023-05-04T11:13:54.708Z,23.78
2023-05-04T11:15:10.155Z,24.19
2023-05-04T11:16:13.159Z,24.44
2023-05-04T11:18:28.661Z,23.84
2023-05-04T11:19:30.565Z,24.14
2023-05-04T11:20:32.558Z,24.26
2023-05-04T11:21:34.543Z,23.80
2023-05-04T11:22:37.528Z,24.16
2023-05-04T11:23:39.523Z,24.41
2023-05-04T11:24:43.305Z,24.49
2023-05-04T11:25:45.368Z,24.36
2023-05-04T11:26:49.180Z,24.05
2023-05-04T11:27:51.533Z,23.95
2023-05-04T11:28:53.627Z,23.94
2023-05-04T11:30:00.772Z,24.00
2023-05-04T11:31:15.528Z,24.01
2023-05-04T11:32:18.120Z,23.90
2023-05-04T11:33:20.392Z,23.71
2023-05-04T11:34:22.471Z,23.66
2023-05-04T11:35:25.076Z,23.57
2023-05-04T11:36:27.308Z,23.37
2023-05-04T11:37:29.860Z,23.41
2023-05-04T11:38:32.128Z,23.31
2023-05-04T11:39:34.001Z,23.10
2023-05-04T11:40:37.468Z,22.99
2023-05-04T11:41:39.531Z,22.98
2023-05-04T11:42:42.877Z,22.77
2023-05-04T11:43:46.635Z,22.54
2023-05-04T11:44:49.288Z,22.54
2023-05-04T11:45:52.703Z,22.28
2023-05-04T11:46:56.260Z,22.50
2023-05-04T11:47:59.438Z,22.34
2023-05-04T11:49:03.887Z,22.43
2023-05-04T11:50:07.454Z,22.25
2023-05-04T11:51:09.382Z,22.17
2023-05-04T11:52:12.189Z,22.12
2023-05-04T11:53:14.109Z,22.16
2023-05-04T11:54:21.681Z,21.94
2023-05-04T11:55:28.960Z,22.05
2023-05-04T11:56:40.797Z,21.97
2023-05-04T11:57:42.735Z,21.79
2023-05-04T11:58:44.800Z,21.93
2023-05-04T11:59:50.320Z,21.96
2023-05-04T12:00:57.047Z,21.94
2023-05-04T12:01:59.428Z,22.02
2023-05-04T12:03:01.629Z,22.16
2023-05-04T12:04:04.650Z,22.21
2023-05-04T12:05:12.982Z,22.24
2023-05-04T12:06:15.088Z,22.45
2023-05-04T12:07:17.298Z,22.54
2023-05-04T12:08:31.878Z,22.62
2023-05-04T12:09:45.034Z,22.44
2023-05-04T12:10:46.972Z,22.50
2023-05-04T12:11:57.998Z,22.65
2023-05-04T12:13:03.220Z,22.64
2023-05-04T12:14:07.721Z,22.67
2023-05-04T12:15:11.296Z,22.57
2023-05-04T12:16:23.435Z,22.60
2023-05-04T12:17:25.486Z,22.53
2023-05-04T12:18:29.861Z,22.59
2023-05-04T12:19:31.969Z,22.64
2023-05-04T12:20:33.943Z,22.75
2023-05-04T12:21:36.184Z,22.69
2023-05-04T12:22:38.331Z,22.64
2023-05-04T12:23:41.660Z,22.68
2023-05-04T12:24:43.578Z,22.67
2023-05-04T12:25:57.323Z,22.84
2023-05-04T12:27:00.100Z,22.73
2023-05-04T12:28:02.965Z,22.86
2023-05-04T12:29:05.181Z,22.37
2023-05-04T12:30:07.600Z,22.47
2023-05-04T12:31:10.203Z,22.65
2023-05-04T12:32:12.134Z,22.63
2023-05-04T12:33:14.018Z,22.98
2023-05-04T12:34:16.248Z,23.25
2023-05-04T12:35:18.066Z,23.37
2023-05-04T12:36:19.988Z,23.40
2023-05-04T12:37:23.824Z,23.42
2023-05-04T12:38:27.860Z,23.39
2023-05-04T12:39:32.122Z,23.59
2023-05-04T12:40:34.148Z,23.79
2023-05-04T12:41:35.999Z,24.00
2023-05-04T12:42:37.855Z,23.91
2023-05-04T12:43:40.405Z,23.47
2023-05-04T12:44:42.627Z,23.56
2023-05-04T12:45:44.484Z,23.57
2023-05-04T12:46:46.324Z,23.22
2023-05-04T12:47:48.188Z,23.09
2023-05-04T12:48:50.069Z,23.10
2023-05-04T12:49:52.226Z,23.25
2023-05-04T12:50:54.273Z,23.19
2023-05-04T12:51:56.080Z,22.96
2023-05-04T12:52:58.050Z,23.11
2023-05-04T12:54:00.015Z,23.23
2023-05-04T12:55:02.156Z,23.26
2023-05-04T12:56:04.146Z,23.20
2023-05-04T12:57:06.068Z,23.04
2023-05-04T12:58:08.149Z,23.03
2023-05-04T12:59:10.779Z,22.98
2023-05-04T13:00:15.028Z,23.06
2023-05-04T13:01:17.224Z,22.85
2023-05-04T13:02:19.101Z,22.86
2023-05-04T13:03:21.771Z,22.90
2023-05-04T13:04:23.814Z,22.92
2023-05-04T13:05:26.187Z,22.84
2023-05-04T13:06:28.015Z,22.63
2023-05-04T13:07:30.399Z,22.59
2023-05-04T13:08:33.577Z,22.67
2023-05-04T13:09:35.579Z,22.61
2023-05-04T13:10:37.728Z,22.77
2023-05-04T13:11:39.577Z,22.85
2023-05-04T13:12:41.884Z,22.96
2023-05-04T13:13:45.737Z,22.98
2023-05-04T13:14:47.644Z,22.82
2023-05-04T13:15:50.594Z,22.94
2023-05-04T13:16:52.723Z,23.02
2023-05-04T13:17:54.651Z,23.05
2023-05-04T13:18:57.920Z,23.16
2023-05-04T13:20:00.294Z,22.99
2023-05-04T13:21:02.464Z,23.22
2023-05-04T13:22:05.005Z,23.26
2023-05-04T13:23:07.030Z,23.41
2023-05-04T13:24:09.170Z,23.47
2023-05-04T13:25:11.117Z,23.61
2023-05-04T13:26:13.243Z,23.57
2023-05-04T13:27:15.073Z,23.62
2023-05-04T13:28:17.669Z,23.86
2023-05-04T13:29:19.543Z,23.85
2023-05-04T13:30:21.995Z,23.98
2023-05-04T13:31:24.467Z,24.08
2023-05-04T13:32:27.497Z,24.09
2023-05-04T13:33:30.726Z,23.92
2023-05-04T13:34:34.297Z,24.04
2023-05-04T13:35:36.139Z,24.19
2023-05-04T13:36:38.230Z,24.27
2023-05-04T13:37:40.084Z,24.19